sensor_id;sensor_type;location;lat;lon;timestamp;P1;durP1;ratioP1;P2;durP2;ratioP2
17949;SDS011;9100;48.700;9.316;2022-09-20T00:00:05;3.5;;;3.2;;
17949;SDS011;9100;48.700;9.316;2022-09-20T00:01:06;3.5;;;3.2;;
17949;SDS011;9100;48.700;9.316;2022-09-20T00:02:05;3.5;;;3.2;;
17949;SDS011;9100;48.700;9.316;2022-09-20T00:03:05;3.1;;;2.8;;
17949;SDS011;9100;48.700;9.316;2022-09-20T00:03:07;3.1;;;2.8;;
17949;SDS011;9100;48.700;9.316;2022-09-20T00:04:05;3.1;;;2.8;;
17949;SDS011;9100;48.700;9.316;2022-09-20T00:05:05;3.1;;;2.8;;
17949;SDS011;9100;48.700;9.316;2022-09-20T00:06:06;3.1;;;2.8;;
17949;SDS011;9100;48.700;9.316;2022-09-20T00:07:05;3.1;;;2.8;;
17949;SDS011;9100;48.700;9.316;2022-09-20T00:08:06;6;;;3.2;;
17949;SDS011;9100;48.700;9.316;2022-09-20T00:08:10;5.9;;;3.2;;
17949;SDS011;9100;48.700;9.316;2022-09-20T00:09:05;5.9;;;3.2;;
17949;SDS011;9100;48.700;9.316;2022-09-20T00:10:05;5.9;;;3.2;;
17949;SDS011;9100;48.700;9.316;2022-09-20T00:11:06;5.9;;;3.2;;
17949;SDS011;9100;48.700;9.316;2022-09-20T00:12:05;5.9;;;3.2;;
17949;SDS011;9100;48.700;9.316;2022-09-20T00:13:06;2.7;;;2.5;;
17949;SDS011;9100;48.700;9.316;2022-09-20T00:13:08;2.6;;;2.5;;
17949;SDS011;9100;48.700;9.316;2022-09-20T00:14:05;2.6;;;2.5;;
17949;SDS011;9100;48.700;9.316;2022-09-20T00:15:05;2.6;;;2.5;;
17949;SDS011;9100;48.700;9.316;2022-09-20T00:16:06;2.6;;;2.5;;
17949;SDS011;9100;48.700;9.316;2022-09-20T00:17:05;2.6;;;2.5;;
17949;SDS011;9100;48.700;9.316;2022-09-20T00:18:05;4.4;;;2.6;;
17949;SDS011;9100;48.700;9.316;2022-09-20T00:18:07;4.5;;;2.6;;
17949;SDS011;9100;48.700;9.316;2022-09-20T00:19:05;4.5;;;2.6;;
17949;SDS011;9100;48.700;9.316;2022-09-20T00:20:05;4.5;;;2.6;;
17949;SDS011;9100;48.700;9.316;2022-09-20T00:21:05;4.5;;;2.6;;
17949;SDS011;9100;48.700;9.316;2022-09-20T00:22:05;4.5;;;2.6;;
17949;SDS011;9100;48.700;9.316;2022-09-20T00:23:05;2.9;;;2.4;;
17949;SDS011;9100;48.700;9.316;2022-09-20T00:23:07;2.7;;;2.4;;
17949;SDS011;9100;48.700;9.316;2022-09-20T00:24:05;2.7;;;2.4;;
17949;SDS011;9100;48.700;9.316;2022-09-20T00:25:05;2.7;;;2.4;;
17949;SDS011;9100;48.700;9.316;2022-09-20T00:26:05;2.7;;;2.4;;
17949;SDS011;9100;48.700;9.316;2022-09-20T00:27:05;2.7;;;2.4;;
17949;SDS011;9100;48.700;9.316;2022-09-20T00:28:05;3.9;;;2.3;;
17949;SDS011;9100;48.700;9.316;2022-09-20T00:28:08;3.8;;;2.3;;
17949;SDS011;9100;48.700;9.316;2022-09-20T00:29:05;3.8;;;2.3;;
17949;SDS011;9100;48.700;9.316;2022-09-20T00:30:05;3.8;;;2.3;;
17949;SDS011;9100;48.700;9.316;2022-09-20T00:31:05;3.8;;;2.3;;
17949;SDS011;9100;48.700;9.316;2022-09-20T00:32:05;3.8;;;2.3;;
17949;SDS011;9100;48.700;9.316;2022-09-20T00:33:05;5.6;;;3.1;;
17949;SDS011;9100;48.700;9.316;2022-09-20T00:33:08;5.6;;;3.1;;
17949;SDS011;9100;48.700;9.316;2022-09-20T00:34:05;5.6;;;3.1;;
17949;SDS011;9100;48.700;9.316;2022-09-20T00:35:05;5.6;;;3.1;;
17949;SDS011;9100;48.700;9.316;2022-09-20T00:36:05;5.6;;;3.1;;
17949;SDS011;9100;48.700;9.316;2022-09-20T00:37:05;5.6;;;3.1;;
17949;SDS011;9100;48.700;9.316;2022-09-20T00:38:05;2.7;;;2.5;;
17949;SDS011;9100;48.700;9.316;2022-09-20T00:38:07;2.7;;;2.5;;
17949;SDS011;9100;48.700;9.316;2022-09-20T00:39:05;2.7;;;2.5;;
17949;SDS011;9100;48.700;9.316;2022-09-20T00:40:06;2.7;;;2.5;;
17949;SDS011;9100;48.700;9.316;2022-09-20T00:41:05;2.7;;;2.5;;
17949;SDS011;9100;48.700;9.316;2022-09-20T00:42:05;2.7;;;2.5;;
17949;SDS011;9100;48.700;9.316;2022-09-20T00:43:05;2.8;;;2.6;;
17949;SDS011;9100;48.700;9.316;2022-09-20T00:43:09;2.8;;;2.6;;
17949;SDS011;9100;48.700;9.316;2022-09-20T00:44:35;2.8;;;2.6;;
17949;SDS011;9100;48.700;9.316;2022-09-20T00:45:06;2.8;;;2.6;;
17949;SDS011;9100;48.700;9.316;2022-09-20T00:46:05;2.8;;;2.6;;
17949;SDS011;9100;48.700;9.316;2022-09-20T00:47:05;2.8;;;2.6;;
17949;SDS011;9100;48.700;9.316;2022-09-20T00:48:08;3.5;;;2.3;;
17949;SDS011;9100;48.700;9.316;2022-09-20T00:48:09;3.5;;;2.2;;
17949;SDS011;9100;48.700;9.316;2022-09-20T00:49:06;3.5;;;2.2;;
17949;SDS011;9100;48.700;9.316;2022-09-20T00:50:22;3.5;;;2.2;;
17949;SDS011;9100;48.700;9.316;2022-09-20T00:51:06;3.5;;;2.2;;
17949;SDS011;9100;48.700;9.316;2022-09-20T00:52:05;3.5;;;2.2;;
17949;SDS011;9100;48.700;9.316;2022-09-20T00:53:06;4.5;;;2.5;;
17949;SDS011;9100;48.700;9.316;2022-09-20T00:53:08;4.4;;;2.5;;
17949;SDS011;9100;48.700;9.316;2022-09-20T00:54:05;4.4;;;2.5;;
17949;SDS011;9100;48.700;9.316;2022-09-20T00:55:06;4.4;;;2.5;;
17949;SDS011;9100;48.700;9.316;2022-09-20T00:56:05;4.4;;;2.5;;
17949;SDS011;9100;48.700;9.316;2022-09-20T00:57:05;4.4;;;2.5;;
17949;SDS011;9100;48.700;9.316;2022-09-20T00:58:05;4;;;2.6;;
17949;SDS011;9100;48.700;9.316;2022-09-20T00:58:07;3.9;;;2.5;;
17949;SDS011;9100;48.700;9.316;2022-09-20T00:59:07;3.9;;;2.5;;
17949;SDS011;9100;48.700;9.316;2022-09-20T01:00:06;3.9;;;2.5;;
17949;SDS011;9100;48.700;9.316;2022-09-20T01:01:05;3.9;;;2.5;;
17949;SDS011;9100;48.700;9.316;2022-09-20T01:02:06;3.9;;;2.5;;
17949;SDS011;9100;48.700;9.316;2022-09-20T01:03:06;5.2;;;2.7;;
17949;SDS011;9100;48.700;9.316;2022-09-20T01:03:08;5.2;;;2.7;;
17949;SDS011;9100;48.700;9.316;2022-09-20T01:04:05;5.2;;;2.7;;
17949;SDS011;9100;48.700;9.316;2022-09-20T01:05:05;5.2;;;2.7;;
17949;SDS011;9100;48.700;9.316;2022-09-20T01:06:07;5.2;;;2.7;;
17949;SDS011;9100;48.700;9.316;2022-09-20T01:07:05;5.2;;;2.7;;
17949;SDS011;9100;48.700;9.316;2022-09-20T01:08:05;3.9;;;2.8;;
17949;SDS011;9100;48.700;9.316;2022-09-20T01:08:07;3.8;;;2.7;;
17949;SDS011;9100;48.700;9.316;2022-09-20T01:09:05;3.8;;;2.7;;
17949;SDS011;9100;48.700;9.316;2022-09-20T01:10:05;3.8;;;2.7;;
17949;SDS011;9100;48.700;9.316;2022-09-20T01:11:05;3.8;;;2.7;;
17949;SDS011;9100;48.700;9.316;2022-09-20T01:12:05;3.8;;;2.7;;
17949;SDS011;9100;48.700;9.316;2022-09-20T01:13:05;7.5;;;2.5;;
17949;SDS011;9100;48.700;9.316;2022-09-20T01:13:07;7.5;;;2.5;;
17949;SDS011;9100;48.700;9.316;2022-09-20T01:14:05;7.5;;;2.5;;
17949;SDS011;9100;48.700;9.316;2022-09-20T01:15:06;7.5;;;2.5;;
17949;SDS011;9100;48.700;9.316;2022-09-20T01:16:05;7.5;;;2.5;;
17949;SDS011;9100;48.700;9.316;2022-09-20T01:17:05;7.5;;;2.5;;
17949;SDS011;9100;48.700;9.316;2022-09-20T01:18:05;2.5;;;2.3;;
17949;SDS011;9100;48.700;9.316;2022-09-20T01:18:07;2.5;;;2.3;;
17949;SDS011;9100;48.700;9.316;2022-09-20T01:19:07;2.5;;;2.3;;
17949;SDS011;9100;48.700;9.316;2022-09-20T01:20:08;2.5;;;2.3;;
17949;SDS011;9100;48.700;9.316;2022-09-20T01:21:05;2.5;;;2.3;;
17949;SDS011;9100;48.700;9.316;2022-09-20T01:22:07;2.5;;;2.3;;
17949;SDS011;9100;48.700;9.316;2022-09-20T01:23:14;5.6;;;2.6;;
17949;SDS011;9100;48.700;9.316;2022-09-20T01:23:15;5.1;;;2.6;;
17949;SDS011;9100;48.700;9.316;2022-09-20T01:24:06;5.6;;;2.6;;
17949;SDS011;9100;48.700;9.316;2022-09-20T01:25:06;5.6;;;2.6;;
17949;SDS011;9100;48.700;9.316;2022-09-20T01:26:11;5.6;;;2.6;;
17949;SDS011;9100;48.700;9.316;2022-09-20T01:27:08;5.6;;;2.6;;
17949;SDS011;9100;48.700;9.316;2022-09-20T01:28:05;4.3;;;2.8;;
17949;SDS011;9100;48.700;9.316;2022-09-20T01:28:07;4.2;;;2.7;;
17949;SDS011;9100;48.700;9.316;2022-09-20T01:29:08;4.2;;;2.7;;
17949;SDS011;9100;48.700;9.316;2022-09-20T01:30:06;4.2;;;2.7;;
17949;SDS011;9100;48.700;9.316;2022-09-20T01:31:06;4.2;;;2.7;;
17949;SDS011;9100;48.700;9.316;2022-09-20T01:32:07;4.2;;;2.7;;
17949;SDS011;9100;48.700;9.316;2022-09-20T01:33:06;5.5;;;2.3;;
17949;SDS011;9100;48.700;9.316;2022-09-20T01:33:08;5.4;;;2.2;;
17949;SDS011;9100;48.700;9.316;2022-09-20T01:34:06;5.4;;;2.2;;
17949;SDS011;9100;48.700;9.316;2022-09-20T01:35:05;5.4;;;2.2;;
17949;SDS011;9100;48.700;9.316;2022-09-20T01:36:05;5.4;;;2.2;;
17949;SDS011;9100;48.700;9.316;2022-09-20T01:37:07;5.4;;;2.2;;
17949;SDS011;9100;48.700;9.316;2022-09-20T01:38:10;3.4;;;2.4;;
17949;SDS011;9100;48.700;9.316;2022-09-20T01:38:11;3.4;;;2.3;;
17949;SDS011;9100;48.700;9.316;2022-09-20T01:39:07;3.4;;;2.3;;
17949;SDS011;9100;48.700;9.316;2022-09-20T01:40:07;3.4;;;2.3;;
17949;SDS011;9100;48.700;9.316;2022-09-20T01:41:06;3.4;;;2.3;;
17949;SDS011;9100;48.700;9.316;2022-09-20T01:42:06;3.4;;;2.3;;
17949;SDS011;9100;48.700;9.316;2022-09-20T01:43:07;5.3;;;2.4;;
17949;SDS011;9100;48.700;9.316;2022-09-20T01:43:08;5.3;;;2.4;;
17949;SDS011;9100;48.700;9.316;2022-09-20T01:44:06;5.3;;;2.4;;
17949;SDS011;9100;48.700;9.316;2022-09-20T01:45:08;5.3;;;2.4;;
17949;SDS011;9100;48.700;9.316;2022-09-20T01:46:08;5.3;;;2.4;;
17949;SDS011;9100;48.700;9.316;2022-09-20T01:47:08;5.3;;;2.4;;
17949;SDS011;9100;48.700;9.316;2022-09-20T01:48:07;4;;;2.3;;
17949;SDS011;9100;48.700;9.316;2022-09-20T01:48:08;4;;;2.3;;
17949;SDS011;9100;48.700;9.316;2022-09-20T01:49:08;4;;;2.3;;
17949;SDS011;9100;48.700;9.316;2022-09-20T01:50:07;4;;;2.3;;
17949;SDS011;9100;48.700;9.316;2022-09-20T01:51:09;4;;;2.3;;
17949;SDS011;9100;48.700;9.316;2022-09-20T01:52:12;4;;;2.3;;
17949;SDS011;9100;48.700;9.316;2022-09-20T01:53:10;2.4;;;2.3;;
17949;SDS011;9100;48.700;9.316;2022-09-20T01:53:13;2.4;;;2.3;;
17949;SDS011;9100;48.700;9.316;2022-09-20T01:54:11;2.4;;;2.3;;
17949;SDS011;9100;48.700;9.316;2022-09-20T01:55:10;2.4;;;2.3;;
17949;SDS011;9100;48.700;9.316;2022-09-20T01:56:10;2.4;;;2.3;;
17949;SDS011;9100;48.700;9.316;2022-09-20T01:57:11;2.4;;;2.3;;
17949;SDS011;9100;48.700;9.316;2022-09-20T01:58:08;2.8;;;2.5;;
17949;SDS011;9100;48.700;9.316;2022-09-20T01:58:16;2.8;;;2.5;;
17949;SDS011;9100;48.700;9.316;2022-09-20T02:00:06;2.8;;;2.5;;
17949;SDS011;9100;48.700;9.316;2022-09-20T02:00:11;2.8;;;2.5;;
17949;SDS011;9100;48.700;9.316;2022-09-20T02:01:12;2.8;;;2.5;;
17949;SDS011;9100;48.700;9.316;2022-09-20T02:02:10;2.8;;;2.5;;
17949;SDS011;9100;48.700;9.316;2022-09-20T02:03:13;3.8;;;2.6;;
17949;SDS011;9100;48.700;9.316;2022-09-20T02:03:41;3.8;;;2.6;;
17949;SDS011;9100;48.700;9.316;2022-09-20T02:04:09;3.8;;;2.6;;
17949;SDS011;9100;48.700;9.316;2022-09-20T02:05:09;3.8;;;2.6;;
17949;SDS011;9100;48.700;9.316;2022-09-20T02:06:07;3.8;;;2.6;;
17949;SDS011;9100;48.700;9.316;2022-09-20T02:07:09;3.8;;;2.6;;
17949;SDS011;9100;48.700;9.316;2022-09-20T02:08:07;6.6;;;2.5;;
17949;SDS011;9100;48.700;9.316;2022-09-20T02:08:08;6.3;;;2.5;;
17949;SDS011;9100;48.700;9.316;2022-09-20T02:09:10;6.3;;;2.5;;
17949;SDS011;9100;48.700;9.316;2022-09-20T02:10:09;6.3;;;2.5;;
17949;SDS011;9100;48.700;9.316;2022-09-20T02:11:08;6.3;;;2.5;;
17949;SDS011;9100;48.700;9.316;2022-09-20T02:12:11;6.3;;;2.5;;
17949;SDS011;9100;48.700;9.316;2022-09-20T02:13:05;2.9;;;2.7;;
17949;SDS011;9100;48.700;9.316;2022-09-20T02:13:08;2.8;;;2.6;;
17949;SDS011;9100;48.700;9.316;2022-09-20T02:14:11;2.8;;;2.6;;
17949;SDS011;9100;48.700;9.316;2022-09-20T02:15:07;2.8;;;2.6;;
17949;SDS011;9100;48.700;9.316;2022-09-20T02:16:10;2.8;;;2.6;;
17949;SDS011;9100;48.700;9.316;2022-09-20T02:17:08;2.8;;;2.6;;
17949;SDS011;9100;48.700;9.316;2022-09-20T02:18:08;4.6;;;2.4;;
17949;SDS011;9100;48.700;9.316;2022-09-20T02:18:09;4.6;;;2.3;;
17949;SDS011;9100;48.700;9.316;2022-09-20T02:19:10;4.6;;;2.3;;
17949;SDS011;9100;48.700;9.316;2022-09-20T02:20:08;4.6;;;2.3;;
17949;SDS011;9100;48.700;9.316;2022-09-20T02:21:08;4.6;;;2.3;;
17949;SDS011;9100;48.700;9.316;2022-09-20T02:22:08;4.6;;;2.3;;
17949;SDS011;9100;48.700;9.316;2022-09-20T02:23:10;2.4;;;2.2;;
17949;SDS011;9100;48.700;9.316;2022-09-20T02:23:11;2.4;;;2.2;;
17949;SDS011;9100;48.700;9.316;2022-09-20T02:24:09;2.4;;;2.2;;
17949;SDS011;9100;48.700;9.316;2022-09-20T02:25:07;2.4;;;2.2;;
17949;SDS011;9100;48.700;9.316;2022-09-20T02:26:08;2.4;;;2.2;;
17949;SDS011;9100;48.700;9.316;2022-09-20T02:27:06;2.4;;;2.2;;
17949;SDS011;9100;48.700;9.316;2022-09-20T02:28:10;6;;;2.3;;
17949;SDS011;9100;48.700;9.316;2022-09-20T02:28:11;6.4;;;2.3;;
17949;SDS011;9100;48.700;9.316;2022-09-20T02:29:11;6.4;;;2.3;;
17949;SDS011;9100;48.700;9.316;2022-09-20T02:30:09;6.4;;;2.3;;
17949;SDS011;9100;48.700;9.316;2022-09-20T02:31:07;6.4;;;2.3;;
17949;SDS011;9100;48.700;9.316;2022-09-20T02:32:10;6.4;;;2.3;;
17949;SDS011;9100;48.700;9.316;2022-09-20T02:33:09;1.9;;;1.8;;
17949;SDS011;9100;48.700;9.316;2022-09-20T02:33:10;1.9;;;1.8;;
17949;SDS011;9100;48.700;9.316;2022-09-20T02:34:17;1.9;;;1.8;;
17949;SDS011;9100;48.700;9.316;2022-09-20T02:35:40;1.9;;;1.8;;
17949;SDS011;9100;48.700;9.316;2022-09-20T02:36:10;1.9;;;1.8;;
17949;SDS011;9100;48.700;9.316;2022-09-20T02:37:10;1.9;;;1.8;;
17949;SDS011;9100;48.700;9.316;2022-09-20T02:38:09;6.1;;;2.1;;
17949;SDS011;9100;48.700;9.316;2022-09-20T02:38:16;6.1;;;2.2;;
17949;SDS011;9100;48.700;9.316;2022-09-20T02:39:06;6.1;;;2.1;;
17949;SDS011;9100;48.700;9.316;2022-09-20T02:40:10;6.1;;;2.1;;
17949;SDS011;9100;48.700;9.316;2022-09-20T02:41:10;6.1;;;2.1;;
17949;SDS011;9100;48.700;9.316;2022-09-20T02:42:08;6.1;;;2.1;;
17949;SDS011;9100;48.700;9.316;2022-09-20T02:43:08;2.3;;;2.1;;
17949;SDS011;9100;48.700;9.316;2022-09-20T02:43:09;2.3;;;2.1;;
17949;SDS011;9100;48.700;9.316;2022-09-20T02:44:06;2.3;;;2.1;;
17949;SDS011;9100;48.700;9.316;2022-09-20T02:45:06;2.3;;;2.1;;
17949;SDS011;9100;48.700;9.316;2022-09-20T02:46:07;2.3;;;2.1;;
17949;SDS011;9100;48.700;9.316;2022-09-20T02:47:08;2.3;;;2.1;;
17949;SDS011;9100;48.700;9.316;2022-09-20T02:48:06;2.3;;;2.1;;
17949;SDS011;9100;48.700;9.316;2022-09-20T02:48:07;2.4;;;2.1;;
17949;SDS011;9100;48.700;9.316;2022-09-20T02:49:07;2.4;;;2.1;;
17949;SDS011;9100;48.700;9.316;2022-09-20T02:50:23;2.4;;;2.1;;
17949;SDS011;9100;48.700;9.316;2022-09-20T02:51:07;2.4;;;2.1;;
17949;SDS011;9100;48.700;9.316;2022-09-20T02:52:06;2.4;;;2.1;;
17949;SDS011;9100;48.700;9.316;2022-09-20T02:53:08;5.9;;;2.5;;
17949;SDS011;9100;48.700;9.316;2022-09-20T02:53:11;5.8;;;2.5;;
17949;SDS011;9100;48.700;9.316;2022-09-20T02:54:08;5.8;;;2.5;;
17949;SDS011;9100;48.700;9.316;2022-09-20T02:55:06;5.8;;;2.5;;
17949;SDS011;9100;48.700;9.316;2022-09-20T02:56:07;5.8;;;2.5;;
17949;SDS011;9100;48.700;9.316;2022-09-20T02:57:08;5.8;;;2.5;;
17949;SDS011;9100;48.700;9.316;2022-09-20T02:58:08;7.2;;;2.1;;
17949;SDS011;9100;48.700;9.316;2022-09-20T02:58:17;7.2;;;2.1;;
17949;SDS011;9100;48.700;9.316;2022-09-20T02:59:06;7.2;;;2.1;;
17949;SDS011;9100;48.700;9.316;2022-09-20T03:00:06;7.2;;;2.1;;
17949;SDS011;9100;48.700;9.316;2022-09-20T03:01:06;7.2;;;2.1;;
17949;SDS011;9100;48.700;9.316;2022-09-20T03:02:08;7.2;;;2.1;;
17949;SDS011;9100;48.700;9.316;2022-09-20T03:03:07;5.7;;;2;;
17949;SDS011;9100;48.700;9.316;2022-09-20T03:03:08;5.3;;;1.9;;
17949;SDS011;9100;48.700;9.316;2022-09-20T03:04:13;5.3;;;1.9;;
17949;SDS011;9100;48.700;9.316;2022-09-20T03:05:07;5.3;;;1.9;;
17949;SDS011;9100;48.700;9.316;2022-09-20T03:06:06;5.3;;;1.9;;
17949;SDS011;9100;48.700;9.316;2022-09-20T03:07:08;5.3;;;1.9;;
17949;SDS011;9100;48.700;9.316;2022-09-20T03:08:10;3.7;;;2.1;;
17949;SDS011;9100;48.700;9.316;2022-09-20T03:08:11;3.7;;;2.1;;
17949;SDS011;9100;48.700;9.316;2022-09-20T03:09:06;3.7;;;2.1;;
17949;SDS011;9100;48.700;9.316;2022-09-20T03:10:08;3.7;;;2.1;;
17949;SDS011;9100;48.700;9.316;2022-09-20T03:11:09;3.7;;;2.1;;
17949;SDS011;9100;48.700;9.316;2022-09-20T03:12:10;3.7;;;2.1;;
17949;SDS011;9100;48.700;9.316;2022-09-20T03:13:09;4.4;;;2.4;;
17949;SDS011;9100;48.700;9.316;2022-09-20T03:13:10;4.3;;;2.4;;
17949;SDS011;9100;48.700;9.316;2022-09-20T03:14:08;4.3;;;2.4;;
17949;SDS011;9100;48.700;9.316;2022-09-20T03:15:09;4.3;;;2.4;;
17949;SDS011;9100;48.700;9.316;2022-09-20T03:16:07;4.3;;;2.4;;
17949;SDS011;9100;48.700;9.316;2022-09-20T03:17:09;4.3;;;2.4;;
17949;SDS011;9100;48.700;9.316;2022-09-20T03:18:07;4.4;;;2.1;;
17949;SDS011;9100;48.700;9.316;2022-09-20T03:18:09;4.7;;;2.1;;
17949;SDS011;9100;48.700;9.316;2022-09-20T03:19:10;4.7;;;2.1;;
17949;SDS011;9100;48.700;9.316;2022-09-20T03:20:07;4.7;;;2.1;;
17949;SDS011;9100;48.700;9.316;2022-09-20T03:21:08;4.7;;;2.1;;
17949;SDS011;9100;48.700;9.316;2022-09-20T03:22:11;4.7;;;2.1;;
17949;SDS011;9100;48.700;9.316;2022-09-20T03:23:08;4.5;;;2;;
17949;SDS011;9100;48.700;9.316;2022-09-20T03:23:09;4.5;;;1.9;;
17949;SDS011;9100;48.700;9.316;2022-09-20T03:24:08;4.5;;;1.9;;
17949;SDS011;9100;48.700;9.316;2022-09-20T03:25:14;4.5;;;1.9;;
17949;SDS011;9100;48.700;9.316;2022-09-20T03:26:07;4.5;;;1.9;;
17949;SDS011;9100;48.700;9.316;2022-09-20T03:27:06;4.5;;;1.9;;
17949;SDS011;9100;48.700;9.316;2022-09-20T03:28:08;3;;;2.1;;
17949;SDS011;9100;48.700;9.316;2022-09-20T03:28:10;3;;;2.1;;
17949;SDS011;9100;48.700;9.316;2022-09-20T03:29:07;3;;;2.1;;
17949;SDS011;9100;48.700;9.316;2022-09-20T03:30:12;3;;;2.1;;
17949;SDS011;9100;48.700;9.316;2022-09-20T03:31:10;3;;;2.1;;
17949;SDS011;9100;48.700;9.316;2022-09-20T03:32:09;3;;;2.1;;
17949;SDS011;9100;48.700;9.316;2022-09-20T03:33:07;6.1;;;2.2;;
17949;SDS011;9100;48.700;9.316;2022-09-20T03:33:09;6.1;;;2.1;;
17949;SDS011;9100;48.700;9.316;2022-09-20T03:34:08;6.1;;;2.1;;
17949;SDS011;9100;48.700;9.316;2022-09-20T03:35:12;6.1;;;2.1;;
17949;SDS011;9100;48.700;9.316;2022-09-20T03:36:12;6.1;;;2.1;;
17949;SDS011;9100;48.700;9.316;2022-09-20T03:37:09;6.1;;;2.1;;
17949;SDS011;9100;48.700;9.316;2022-09-20T03:38:10;1.9;;;1.8;;
17949;SDS011;9100;48.700;9.316;2022-09-20T03:38:10;1.9;;;1.8;;
17949;SDS011;9100;48.700;9.316;2022-09-20T03:39:10;1.9;;;1.8;;
17949;SDS011;9100;48.700;9.316;2022-09-20T03:41:09;1.9;;;1.8;;
17949;SDS011;9100;48.700;9.316;2022-09-20T03:42:08;1.9;;;1.8;;
17949;SDS011;9100;48.700;9.316;2022-09-20T03:43:08;3.4;;;2.6;;
17949;SDS011;9100;48.700;9.316;2022-09-20T03:43:10;3.3;;;2.6;;
17949;SDS011;9100;48.700;9.316;2022-09-20T03:44:09;3.3;;;2.6;;
17949;SDS011;9100;48.700;9.316;2022-09-20T03:45:13;3.3;;;2.6;;
17949;SDS011;9100;48.700;9.316;2022-09-20T03:46:09;3.3;;;2.6;;
17949;SDS011;9100;48.700;9.316;2022-09-20T03:47:08;3.3;;;2.6;;
17949;SDS011;9100;48.700;9.316;2022-09-20T03:48:16;4.2;;;2.2;;
17949;SDS011;9100;48.700;9.316;2022-09-20T03:48:18;4.1;;;2.2;;
17949;SDS011;9100;48.700;9.316;2022-09-20T03:49:15;4.2;;;2.2;;
17949;SDS011;9100;48.700;9.316;2022-09-20T03:50:11;4.2;;;2.2;;
17949;SDS011;9100;48.700;9.316;2022-09-20T03:51:10;4.2;;;2.2;;
17949;SDS011;9100;48.700;9.316;2022-09-20T03:52:06;4.2;;;2.2;;
17949;SDS011;9100;48.700;9.316;2022-09-20T03:53:13;5.9;;;2.2;;
17949;SDS011;9100;48.700;9.316;2022-09-20T03:53:13;5.7;;;2.2;;
17949;SDS011;9100;48.700;9.316;2022-09-20T03:54:17;5.9;;;2.2;;
17949;SDS011;9100;48.700;9.316;2022-09-20T03:55:13;5.9;;;2.2;;
17949;SDS011;9100;48.700;9.316;2022-09-20T03:56:12;5.9;;;2.2;;
17949;SDS011;9100;48.700;9.316;2022-09-20T03:57:11;5.9;;;2.2;;
17949;SDS011;9100;48.700;9.316;2022-09-20T03:58:09;2.5;;;1.8;;
17949;SDS011;9100;48.700;9.316;2022-09-20T03:58:12;2.6;;;1.8;;
17949;SDS011;9100;48.700;9.316;2022-09-20T03:59:11;2.6;;;1.8;;
17949;SDS011;9100;48.700;9.316;2022-09-20T04:00:10;2.6;;;1.8;;
17949;SDS011;9100;48.700;9.316;2022-09-20T04:01:18;2.6;;;1.8;;
17949;SDS011;9100;48.700;9.316;2022-09-20T04:02:10;2.6;;;1.8;;
17949;SDS011;9100;48.700;9.316;2022-09-20T04:03:12;4.5;;;2.2;;
17949;SDS011;9100;48.700;9.316;2022-09-20T04:03:20;4.6;;;2.2;;
17949;SDS011;9100;48.700;9.316;2022-09-20T04:04:06;4.6;;;2.2;;
17949;SDS011;9100;48.700;9.316;2022-09-20T04:05:06;4.6;;;2.2;;
17949;SDS011;9100;48.700;9.316;2022-09-20T04:06:15;4.6;;;2.2;;
17949;SDS011;9100;48.700;9.316;2022-09-20T04:07:15;4.6;;;2.2;;
17949;SDS011;9100;48.700;9.316;2022-09-20T04:08:08;3.3;;;1.9;;
17949;SDS011;9100;48.700;9.316;2022-09-20T04:08:08;3.4;;;1.9;;
17949;SDS011;9100;48.700;9.316;2022-09-20T04:09:20;3.4;;;1.9;;
17949;SDS011;9100;48.700;9.316;2022-09-20T04:10:10;3.4;;;1.9;;
17949;SDS011;9100;48.700;9.316;2022-09-20T04:11:07;3.4;;;1.9;;
17949;SDS011;9100;48.700;9.316;2022-09-20T04:12:06;3.4;;;1.9;;
17949;SDS011;9100;48.700;9.316;2022-09-20T04:13:11;2.6;;;2;;
17949;SDS011;9100;48.700;9.316;2022-09-20T04:13:12;2.9;;;2;;
17949;SDS011;9100;48.700;9.316;2022-09-20T04:14:10;2.6;;;2;;
17949;SDS011;9100;48.700;9.316;2022-09-20T04:15:08;2.6;;;2;;
17949;SDS011;9100;48.700;9.316;2022-09-20T04:16:09;2.6;;;2;;
17949;SDS011;9100;48.700;9.316;2022-09-20T04:17:10;2.6;;;2;;
17949;SDS011;9100;48.700;9.316;2022-09-20T04:18:08;2.5;;;2;;
17949;SDS011;9100;48.700;9.316;2022-09-20T04:18:10;2.4;;;2;;
17949;SDS011;9100;48.700;9.316;2022-09-20T04:19:09;2.4;;;2;;
17949;SDS011;9100;48.700;9.316;2022-09-20T04:20:09;2.4;;;2;;
17949;SDS011;9100;48.700;9.316;2022-09-20T04:21:07;2.4;;;2;;
17949;SDS011;9100;48.700;9.316;2022-09-20T04:22:06;2.4;;;2;;
17949;SDS011;9100;48.700;9.316;2022-09-20T04:23:11;4;;;2.2;;
17949;SDS011;9100;48.700;9.316;2022-09-20T04:23:11;4;;;2.1;;
17949;SDS011;9100;48.700;9.316;2022-09-20T04:24:08;4;;;2.1;;
17949;SDS011;9100;48.700;9.316;2022-09-20T04:25:11;4;;;2.1;;
17949;SDS011;9100;48.700;9.316;2022-09-20T04:26:05;4;;;2.1;;
17949;SDS011;9100;48.700;9.316;2022-09-20T04:27:08;4;;;2.1;;
17949;SDS011;9100;48.700;9.316;2022-09-20T04:28:07;5.6;;;2.2;;
17949;SDS011;9100;48.700;9.316;2022-09-20T04:28:08;5.9;;;2.2;;
17949;SDS011;9100;48.700;9.316;2022-09-20T04:29:16;5.9;;;2.2;;
17949;SDS011;9100;48.700;9.316;2022-09-20T04:30:09;5.9;;;2.2;;
17949;SDS011;9100;48.700;9.316;2022-09-20T04:31:08;5.9;;;2.2;;
17949;SDS011;9100;48.700;9.316;2022-09-20T04:32:10;5.9;;;2.2;;
17949;SDS011;9100;48.700;9.316;2022-09-20T04:33:10;3.4;;;2.1;;
17949;SDS011;9100;48.700;9.316;2022-09-20T04:33:13;3.3;;;2.1;;
17949;SDS011;9100;48.700;9.316;2022-09-20T04:34:09;3.4;;;2.1;;
17949;SDS011;9100;48.700;9.316;2022-09-20T04:35:10;3.4;;;2.1;;
17949;SDS011;9100;48.700;9.316;2022-09-20T04:36:08;3.4;;;2.1;;
17949;SDS011;9100;48.700;9.316;2022-09-20T04:37:15;3.4;;;2.1;;
17949;SDS011;9100;48.700;9.316;2022-09-20T04:38:06;2.8;;;2.1;;
17949;SDS011;9100;48.700;9.316;2022-09-20T04:38:07;2.9;;;2;;
17949;SDS011;9100;48.700;9.316;2022-09-20T04:39:10;2.9;;;2;;
17949;SDS011;9100;48.700;9.316;2022-09-20T04:40:08;2.9;;;2;;
17949;SDS011;9100;48.700;9.316;2022-09-20T04:41:11;2.9;;;2;;
17949;SDS011;9100;48.700;9.316;2022-09-20T04:43:11;5.5;;;2.1;;
17949;SDS011;9100;48.700;9.316;2022-09-20T04:43:25;5.9;;;2.1;;
17949;SDS011;9100;48.700;9.316;2022-09-20T04:45:09;5.9;;;2.1;;
17949;SDS011;9100;48.700;9.316;2022-09-20T04:45:14;5.9;;;2.1;;
17949;SDS011;9100;48.700;9.316;2022-09-20T04:46:10;5.9;;;2.1;;
17949;SDS011;9100;48.700;9.316;2022-09-20T04:47:18;5.9;;;2.1;;
17949;SDS011;9100;48.700;9.316;2022-09-20T04:48:11;3.4;;;1.9;;
17949;SDS011;9100;48.700;9.316;2022-09-20T04:48:12;3.2;;;1.9;;
17949;SDS011;9100;48.700;9.316;2022-09-20T04:49:13;3.2;;;1.9;;
17949;SDS011;9100;48.700;9.316;2022-09-20T04:50:25;3.2;;;1.9;;
17949;SDS011;9100;48.700;9.316;2022-09-20T04:51:21;3.2;;;1.9;;
17949;SDS011;9100;48.700;9.316;2022-09-20T04:52:13;3.2;;;1.9;;
17949;SDS011;9100;48.700;9.316;2022-09-20T04:53:13;2.3;;;2;;
17949;SDS011;9100;48.700;9.316;2022-09-20T04:53:43;2.3;;;2.1;;
17949;SDS011;9100;48.700;9.316;2022-09-20T04:54:12;2.3;;;2;;
17949;SDS011;9100;48.700;9.316;2022-09-20T04:55:11;2.3;;;2;;
17949;SDS011;9100;48.700;9.316;2022-09-20T04:56:07;2.3;;;2;;
17949;SDS011;9100;48.700;9.316;2022-09-20T04:57:12;2.3;;;2;;
17949;SDS011;9100;48.700;9.316;2022-09-20T04:58:12;6.8;;;2.3;;
17949;SDS011;9100;48.700;9.316;2022-09-20T04:58:16;7;;;2.2;;
17949;SDS011;9100;48.700;9.316;2022-09-20T04:59:06;7;;;2.2;;
17949;SDS011;9100;48.700;9.316;2022-09-20T05:00:07;7;;;2.2;;
17949;SDS011;9100;48.700;9.316;2022-09-20T05:01:20;7;;;2.2;;
17949;SDS011;9100;48.700;9.316;2022-09-20T05:02:18;7;;;2.2;;
17949;SDS011;9100;48.700;9.316;2022-09-20T05:03:12;2;;;1.8;;
17949;SDS011;9100;48.700;9.316;2022-09-20T05:03:12;2;;;1.8;;
17949;SDS011;9100;48.700;9.316;2022-09-20T05:06:10;2;;;1.8;;
17949;SDS011;9100;48.700;9.316;2022-09-20T05:07:12;2;;;1.8;;
17949;SDS011;9100;48.700;9.316;2022-09-20T05:08:12;1.9;;;1.8;;
17949;SDS011;9100;48.700;9.316;2022-09-20T05:09:13;1.8;;;1.7;;
17949;SDS011;9100;48.700;9.316;2022-09-20T05:09:17;1.8;;;1.7;;
17949;SDS011;9100;48.700;9.316;2022-09-20T05:10:11;1.8;;;1.7;;
17949;SDS011;9100;48.700;9.316;2022-09-20T05:11:12;1.8;;;1.7;;
17949;SDS011;9100;48.700;9.316;2022-09-20T05:12:11;1.8;;;1.7;;
17949;SDS011;9100;48.700;9.316;2022-09-20T05:13:11;5.8;;;2.6;;
17949;SDS011;9100;48.700;9.316;2022-09-20T05:13:11;4.7;;;2.5;;
17949;SDS011;9100;48.700;9.316;2022-09-20T05:14:11;4.7;;;2.5;;
17949;SDS011;9100;48.700;9.316;2022-09-20T05:15:08;4.7;;;2.5;;
17949;SDS011;9100;48.700;9.316;2022-09-20T05:16:07;4.7;;;2.5;;
17949;SDS011;9100;48.700;9.316;2022-09-20T05:17:11;4.7;;;2.5;;
17949;SDS011;9100;48.700;9.316;2022-09-20T05:18:09;3.1;;;2.2;;
17949;SDS011;9100;48.700;9.316;2022-09-20T05:18:23;3.3;;;2.2;;
17949;SDS011;9100;48.700;9.316;2022-09-20T05:19:09;3.3;;;2.2;;
17949;SDS011;9100;48.700;9.316;2022-09-20T05:20:11;3.3;;;2.2;;